Time;durP1;ratioP1;P1;durP2;ratioP2;P2;SDS_P1;SDS_P2;PMS_P1;PMS_P2;Temp;Humidity;BMP_temperature;BMP_pressure;BME280_temperature;BME280_humidity;BME280_pressure;Samples;Min_cycle;Max_cycle;Signal;HPM_P1;HPM_P2
2022/04/08 00:00:48;;;;;;;19.80;11.43;;;;;;;10.56;71.36;96289.59;10293602;28;20117;-62
2022/04/08 00:05:47;;;;;;;17.83;11.88;;;;;;;10.89;71.83;96351.97;10293829;28;20038;-61
2022/04/08 00:10:47;;;;;;;15.82;10.85;;;;;;;9.94;72.28;96207.25;10293260;28;20037;-61
2022/04/08 00:15:46;;;;;;;14.38;10.15;;;;;;;10.34;72.13;96298.78;10292576;28;20076;-61
2022/04/08 00:20:45;;;;;;;14.93;9.35;;;;;;;10.72;72.57;96356.69;10293236;28;20038;-62
2022/04/08 00:25:44;;;;;;;12.60;7.20;;;;;;;10.70;72.29;96361.06;10292830;28;20057;-61
2022/04/08 00:30:43;;;;;;;7.20;4.60;;;;;;;10.62;70.06;96354.31;10292294;28;20034;-61
2022/04/08 00:35:42;;;;;;;6.38;4.93;;;;;;;10.70;70.63;96366.25;10291707;28;20048;-62
2022/04/08 00:40:41;;;;;;;6.65;4.38;;;;;;;10.62;70.22;96369.88;10291093;28;20041;-61
2022/04/08 00:45:40;;;;;;;6.97;4.60;;;;;;;9.87;70.07;96225.59;10291809;28;20117;-61
2022/04/08 00:50:42;;;;;;;7.47;4.68;;;;;;;9.76;69.63;96229.25;10291937;28;20866;-61
2022/04/08 00:55:41;;;;;;;5.75;4.38;;;;;;;9.98;69.66;96290.97;10291101;28;20121;-61
2022/04/08 01:00:42;;;;;;;8.50;4.57;;;;;;;10.10;69.54;96314.03;10291437;28;20065;-61
2022/04/08 01:05:41;;;;;;;6.95;4.47;;;;;;;9.42;69.07;96216.22;10291755;28;20064;-61
2022/04/08 01:10:40;;;;;;;;;;;;;;;10.36;69.48;96356.66;10291227;28;20054;-62
2022/04/08 01:15:39;;;;;;;5.88;4.30;;;;;;;10.30;68.46;96360.22;10290914;28;19960;-61
2022/04/08 01:20:38;;;;;;;5.28;4.13;;;;;;;10.02;68.37;96317.66;10291261;28;20108;-61
2022/04/08 01:25:37;;;;;;;9.65;4.32;;;;;;;10.22;68.40;96351.78;10290729;28;20065;-62
2022/04/08 01:30:36;;;;;;;8.18;4.78;;;;;;;10.24;68.08;96351.72;10289049;28;20037;-61
2022/04/08 01:35:35;;;;;;;6.65;3.95;;;;;;;10.25;67.35;96353.47;10290467;28;20096;-62
2022/04/08 01:40:34;;;;;;;6.05;3.88;;;;;;;10.30;67.36;96372.34;10290110;28;20037;-61
2022/04/08 01:45:33;;;;;;;5.68;4.50;;;;;;;10.15;67.91;96348.47;10289968;28;20516;-61
2022/04/08 01:50:32;;;;;;;4.72;3.65;;;;;;;9.50;67.20;96252.28;10290865;28;20092;-61
2022/04/08 01:55:31;;;;;;;5.40;3.58;;;;;;;10.15;66.71;96371.81;10289792;28;20117;-61
2022/04/08 02:00:32;;;;;;;8.52;4.25;;;;;;;9.53;66.85;96263.41;10289233;28;20065;-61
2022/04/08 02:05:32;;;;;;;7.22;3.60;;;;;;;10.17;66.70;96374.38;10289861;28;20523;-61
2022/04/08 02:10:31;;;;;;;5.10;3.75;;;;;;;9.60;66.23;96305.56;10289155;28;20065;-61
2022/04/08 02:15:34;;;;;;;6.78;3.45;;;;;;;9.84;66.21;96329.28;10288971;28;20044;-61
2022/04/08 02:20:34;;;;;;;6.65;3.88;;;;;;;10.11;65.89;96379.66;10289465;28;20089;-61
2022/04/08 02:25:33;;;;;;;8.43;4.10;;;;;;;10.22;65.96;96397.59;10288733;28;20062;-61
2022/04/08 02:30:32;;;;;;;6.05;3.35;;;;;;;9.99;65.53;96363.50;10288177;28;20069;-61
2022/04/08 02:35:31;;;;;;;8.55;2.97;;;;;;;10.08;65.37;96385.78;10288909;28;20194;-61
2022/04/08 02:40:30;;;;;;;5.72;3.00;;;;;;;9.74;64.79;96321.69;10288777;28;20065;-61
2022/04/08 02:45:29;;;;;;;3.58;3.13;;;;;;;10.25;65.23;96397.53;10288673;28;20040;-61
2022/04/08 02:50:28;;;;;;;5.50;3.38;;;;;;;10.02;64.75;96380.72;10288550;28;20108;-61
2022/04/08 02:55:27;;;;;;;5.43;3.47;;;;;;;10.18;65.20;96423.56;10288823;28;20066;-61
2022/04/08 03:00:27;;;;;;;4.45;2.88;;;;;;;9.83;64.82;96381.97;10286845;28;20037;-61
2022/04/08 03:05:25;;;;;;;8.15;2.85;;;;;;;9.82;64.65;96378.53;10289448;28;20506;-61
2022/04/08 03:10:24;;;;;;;3.20;2.63;;;;;;;10.24;63.81;96437.28;10290259;28;20025;-61
2022/04/08 03:15:23;;;;;;;5.85;2.97;;;;;;;10.29;63.79;96441.50;10295271;28;20038;-61
2022/04/08 03:20:22;;;;;;;5.20;2.28;;;;;;;10.16;62.87;96427.09;10295902;28;20061;-61
2022/04/08 03:25:21;;;;;;;6.85;2.70;;;;;;;9.87;62.73;96386.22;10295111;28;20029;-61
2022/04/08 03:30:20;;;;;;;3.63;2.42;;;;;;;10.20;62.36;96473.66;10294790;28;20543;-61
2022/04/08 03:35:19;;;;;;;3.92;2.70;;;;;;;10.06;62.92;96460.13;10295193;28;20401;-61
2022/04/08 03:40:19;;;;;;;5.90;2.60;;;;;;;10.07;61.35;96461.81;10294331;28;20110;-61
2022/04/08 03:45:18;;;;;;;4.78;2.72;;;;;;;10.30;61.33;96500.25;10294249;28;20602;-61
2022/04/08 03:50:17;;;;;;;4.63;2.30;;;;;;;10.34;61.06;96486.34;10293798;28;20500;-61
2022/04/08 03:55:17;;;;;;;3.60;2.58;;;;;;;9.71;60.07;96381.34;10294233;28;20029;-61
2022/04/08 04:00:16;;;;;;;4.03;2.50;;;;;;;10.07;60.24;96451.44;10294131;28;20444;-61
2022/04/08 04:05:15;;;;;;;5.45;2.60;;;;;;;10.27;59.89;96489.09;10293109;28;20467;-61
2022/04/08 04:10:17;;;;;;;4.47;2.60;;;;;;;10.43;59.91;96507.81;10293660;28;20061;-61
2022/04/08 04:15:16;;;;;;;4.22;2.30;;;;;;;10.38;59.66;96505.28;10293156;28;20076;-61
2022/04/08 04:20:15;;;;;;;3.95;2.20;;;;;;;10.44;59.11;96523.31;10293567;28;20065;-61
2022/04/08 04:25:14;;;;;;;6.38;2.10;;;;;;;9.97;58.86;96443.00;10283174;28;20050;-62
2022/04/08 04:30:13;;;;;;;5.35;2.15;;;;;;;10.18;58.04;96478.00;10292097;28;20032;-61
2022/04/08 04:35:12;;;;;;;3.22;2.20;;;;;;;10.07;57.84;96414.31;10292274;28;20034;-61
2022/04/08 04:40:11;;;;;;;4.78;2.80;;;;;;;10.46;57.78;96495.59;10313587;28;20452;-61
2022/04/08 04:45:11;;;;;;;7.38;3.05;;;;;;;10.88;56.98;96544.91;10289458;28;20054;-61
2022/04/08 04:50:10;;;;;;;4.82;2.50;;;;;;;10.83;56.43;96526.81;10288424;28;20180;-61
2022/04/08 04:55:09;;;;;;;;;;;;;;;11.11;55.50;96582.50;10290720;28;20516;-62
2022/04/08 05:00:11;;;;;;;6.03;2.20;;;;;;;11.34;55.16;96579.38;10287416;28;20399;-62
2022/04/08 05:05:10;;;;;;;5.97;2.72;;;;;;;11.41;54.98;96594.78;10291043;28;20515;-62
2022/04/08 05:10:10;;;;;;;4.85;1.95;;;;;;;11.05;54.45;96531.56;10290797;28;20527;-62
2022/04/08 05:15:09;;;;;;;;;;;;;;;11.65;53.94;96600.31;10291281;28;20065;-62
2022/04/08 05:20:08;;;;;;;6.82;2.63;;;;;;;11.80;53.14;96607.72;10290637;28;19953;-62
2022/04/08 05:25:08;;;;;;;;;;;;;;;11.97;53.12;96619.44;10290624;28;20079;-62
2022/04/08 05:30:08;;;;;;;7.53;3.55;;;;;;;12.15;53.57;96626.78;10284290;28;20387;-62
2022/04/08 05:35:08;;;;;;;8.15;3.65;;;;;;;12.30;51.93;96621.25;10286958;28;20061;-62
2022/04/08 05:40:17;;;;;;;7.18;2.92;;;;;;;12.43;51.94;96620.91;10287564;28;20056;-62
2022/04/08 05:45:20;;;;;;;4.05;2.53;;;;;;;12.55;51.59;96630.13;10284930;28;20065;-62
2022/04/08 05:50:20;;;;;;;4.50;2.45;;;;;;;12.56;50.72;96627.50;10284844;28;20516;-62
2022/04/08 05:55:20;;;;;;;6.18;2.30;;;;;;;12.48;51.07;96585.22;10282758;28;20363;-62
2022/04/08 06:00:21;;;;;;;5.70;2.60;;;;;;;12.48;50.83;96583.44;10284808;28;20065;-62
2022/04/08 06:05:19;;;;;;;4.55;2.63;;;;;;;13.04;50.53;96655.66;10283178;28;20121;-62
2022/04/08 06:10:22;;;;;;;6.85;2.35;;;;;;;13.17;49.64;96650.13;10285823;28;20124;-62
2022/04/08 06:15:21;;;;;;;4.60;2.50;;;;;;;12.68;48.65;96549.06;10287237;28;20484;-62
2022/04/08 06:20:20;;;;;;;3.03;2.28;;;;;;;13.25;48.10;96596.03;10287713;28;20528;-62
2022/04/08 06:25:22;;;;;;;5.43;3.00;;;;;;;13.70;48.01;96660.69;10286197;28;20088;-62
2022/04/08 06:30:21;;;;;;;5.13;2.55;;;;;;;13.68;46.77;96647.72;10288601;28;20166;-62
2022/04/08 06:35:20;;;;;;;5.80;2.85;;;;;;;13.53;46.44;96611.66;10275121;28;20034;-62
2022/04/08 06:40:19;;;;;;;4.93;2.80;;;;;;;13.90;46.69;96647.06;10258789;28;20061;-62
2022/04/08 06:45:18;;;;;;;6.50;3.40;;;;;;;14.14;45.38;96679.31;10292371;28;20113;-62
2022/04/08 06:50:18;;;;;;;5.13;3.15;;;;;;;14.16;46.26;96674.91;10283245;28;20588;-62
2022/04/08 06:55:17;;;;;;;;;;;;;;;14.35;45.57;96690.78;10302707;28;20072;-62
2022/04/08 07:00:16;;;;;;;7.27;3.47;;;;;;;14.25;44.59;96647.66;10295989;28;19963;-63
2022/04/08 07:05:15;;;;;;;;;;;;;;;14.63;44.81;96685.50;10296543;28;20065;-63
2022/04/08 07:10:14;;;;;;;5.80;2.60;;;;;;;14.77;44.44;96691.13;10275781;28;19920;-63
2022/04/08 07:15:13;;;;;;;;;;;;;;;14.90;43.80;96694.19;10270908;28;20053;-63
2022/04/08 07:20:14;;;;;;;5.68;3.25;;;;;;;15.00;43.44;96689.47;10295691;28;20000;-63
2022/04/08 07:25:13;;;;;;;8.82;4.05;;;;;;;15.02;43.11;96677.22;10295499;28;20065;-63
2022/04/08 07:30:13;;;;;;;9.38;4.32;;;;;;;15.26;42.50;96722.50;10295102;28;20061;-63
2022/04/08 07:35:12;;;;;;;8.73;3.70;;;;;;;15.51;42.02;96732.91;10286499;28;20456;-63
2022/04/08 07:40:12;;;;;;;5.95;3.47;;;;;;;15.47;41.88;96702.56;10307001;28;20081;-63
2022/04/08 07:45:12;;;;;;;5.65;3.50;;;;;;;15.53;40.74;96702.34;10295141;28;20065;-63
2022/04/08 07:50:13;;;;;;;8.75;3.80;;;;;;;15.78;41.32;96696.16;10294100;28;20081;-63
2022/04/08 07:55:12;;;;;;;9.55;6.43;;;;;;;16.09;41.28;96735.09;10293531;28;20481;-63
2022/04/08 08:00:14;;;;;;;36.13;31.77;;;;;;;16.29;41.28;96736.94;10292963;28;20131;-63
2022/04/08 08:05:14;;;;;;;12.18;9.05;;;;;;;16.39;40.89;96722.53;10293808;28;20065;-63
2022/04/08 08:10:23;;;;;;;8.65;6.25;;;;;;;16.60;40.09;96726.03;10293370;28;20500;-62
2022/04/08 08:15:23;;;;;;;9.27;3.95;;;;;;;16.72;39.69;96703.72;10292171;28;20073;-62
2022/04/08 08:20:23;;;;;;;23.13;15.18;;;;;;;17.19;39.16;96734.94;10293178;28;20061;-62
2022/04/08 08:25:22;;;;;;;30.65;20.17;;;;;;;17.43;38.27;96737.41;10292774;28;20061;-62
2022/04/08 08:30:21;;;;;;;17.92;10.60;;;;;;;17.45;37.77;96725.91;10291951;28;20069;-62
2022/04/08 08:35:21;;;;;;;37.28;22.50;;;;;;;17.64;36.70;96759.19;10291528;28;20077;-62
2022/04/08 08:40:20;;;;;;;11.90;6.13;;;;;;;16.92;38.61;96653.97;10292178;28;20448;-62
2022/04/08 08:45:19;;;;;;;13.55;8.50;;;;;;;17.64;37.41;96773.16;10292738;28;20507;-62
2022/04/08 08:50:18;;;;;;;8.88;3.88;;;;;;;17.38;38.99;96729.75;10291936;28;20415;-62
2022/04/08 08:55:18;;;;;;;;;;;;;;;17.80;38.15;96772.47;10291468;28;20072;-62
2022/04/08 09:00:19;;;;;;;15.77;11.65;;;;;;;17.83;37.99;96767.09;10292320;28;20390;-63
2022/04/08 09:05:19;;;;;;;42.53;34.58;;;;;;;17.81;36.09;96767.16;10292289;28;20061;-64
2022/04/08 09:10:33;;;;;;;47.60;35.58;;;;;;;17.81;36.32;96750.56;10290505;28;20406;-62
2022/04/08 09:15:37;;;;;;;11.45;7.20;;;;;;;17.90;36.47;96743.13;10290685;28;20072;-63
2022/04/08 09:20:48;;;;;;;4.50;3.00;;;;;;;17.87;36.05;96718.78;10290763;28;20068;-62
2022/04/08 09:25:48;;;;;;;6.70;4.10;;;;;;;18.42;35.10;96783.59;10290228;28;20053;-63
2022/04/08 09:30:49;;;;;;;7.45;3.33;;;;;;;18.53;34.41;96774.28;10290740;28;20456;-62
2022/04/08 09:35:49;;;;;;;6.75;2.67;;;;;;;18.22;35.65;96690.00;10290232;28;20068;-62
2022/04/08 09:40:49;;;;;;;5.60;2.08;;;;;;;18.65;34.78;96717.66;10290465;28;20065;-62
2022/04/08 09:45:48;;;;;;;5.50;3.90;;;;;;;19.11;32.82;96748.66;10290639;28;20067;-63
2022/04/08 09:50:50;;;;;;;5.53;3.13;;;;;;;19.26;32.87;96753.13;10289660;28;20455;-62
2022/04/08 09:55:50;;;;;;;6.35;3.70;;;;;;;19.37;33.85;96755.19;10289784;28;20065;-63
2022/04/08 10:00:50;;;;;;;10.25;4.22;;;;;;;19.51;32.40;96746.56;10288624;28;20073;-63
2022/04/08 10:05:49;;;;;;;3.17;2.42;;;;;;;19.44;33.49;96723.25;10289681;28;20050;-62
2022/04/08 10:11:02;;;;;;;3.53;2.53;;;;;;;19.70;33.49;96746.47;10290055;28;20034;-62
2022/04/08 10:16:19;;;;;;;6.03;2.65;;;;;;;19.64;32.45;96734.50;10289440;28;20453;-62
2022/04/08 10:21:18;;;;;;;4.72;3.30;;;;;;;19.67;30.38;96731.69;10294879;28;20070;-62
2022/04/08 10:26:22;;;;;;;26.38;17.60;;;;;;;19.37;30.52;96666.63;10297570;28;20050;-62
2022/04/08 10:31:26;;;;;;;15.40;11.95;;;;;;;20.07;31.05;96751.47;10297729;28;20447;-62
2022/04/08 10:36:44;;;;;;;9.40;6.90;;;;;;;20.22;32.11;96743.63;10297557;28;20478;-62
2022/04/08 10:41:48;;;;;;;41.05;26.85;;;;;;;20.35;30.21;96738.50;10297794;28;20057;-62
2022/04/08 10:46:51;;;;;;;15.82;9.05;;;;;;;20.45;31.24;96732.69;10297484;28;20084;-62
2022/04/08 10:51:51;;;;;;;18.20;12.45;;;;;;;20.44;31.80;96701.13;10296428;28;20084;-62
2022/04/08 10:56:57;;;;;;;19.77;13.55;;;;;;;20.56;31.77;96700.41;10296425;28;20061;-62
2022/04/08 11:02:02;;;;;;;19.13;8.50;;;;;;;20.24;31.19;96618.78;10294723;28;20471;-62
2022/04/08 11:07:05;;;;;;;18.98;8.52;;;;;;;21.05;29.62;96731.81;10296309;28;20515;-62
2022/04/08 11:12:05;;;;;;;10.90;7.22;;;;;;;21.11;29.24;96733.25;10296304;28;20092;-62
2022/04/08 11:17:05;;;;;;;10.65;8.07;;;;;;;21.29;28.79;96736.63;10296278;28;20482;-62
2022/04/08 11:22:11;;;;;;;3.22;2.15;;;;;;;21.42;29.36;96721.72;10296155;28;20057;-62
2022/04/08 11:27:10;;;;;;;9.68;7.25;;;;;;;21.50;29.63;96724.75;10295571;28;20061;-62
2022/04/08 11:32:11;;;;;;;3.00;2.00;;;;;;;21.36;27.85;96715.97;10294379;28;20084;-62
2022/04/08 11:37:09;;;;;;;3.05;1.70;;;;;;;21.31;27.48;96718.88;10294927;28;20575;-62
2022/04/08 11:42:09;;;;;;;6.88;4.10;;;;;;;21.43;28.58;96710.22;10294853;28;20510;-62
2022/04/08 11:47:08;;;;;;;3.60;2.80;;;;;;;21.02;28.93;96597.47;10294665;28;20522;-62
2022/04/08 11:52:08;;;;;;;7.07;3.33;;;;;;;21.61;26.81;96678.34;10294272;28;20077;-62
2022/04/08 11:57:07;;;;;;;5.82;3.83;;;;;;;21.81;26.83;96680.59;10294096;28;20560;-63
2022/04/08 12:02:07;;;;;;;4.40;1.95;;;;;;;;;;10294526;28;20518;-62
2022/04/08 12:07:21;;;;;;;3.70;1.90;;;;;;;21.80;26.80;96657.75;10291278;28;20053;-62
2022/04/08 12:12:28;;;;;;;2.53;2.05;;;;;;;21.80;25.96;96663.03;10291394;28;20068;-62
2022/04/08 12:17:36;;;;;;;7.03;2.00;;;;;;;22.09;25.25;96670.94;10293175;28;20057;-62
2022/04/08 12:22:35;;;;;;;2.80;1.80;;;;;;;22.23;25.66;96657.66;10293649;28;20061;-62
2022/04/08 12:27:34;;;;;;;8.13;1.95;;;;;;;22.33;24.90;96677.25;10293237;28;20044;-63
2022/04/08 12:32:35;;;;;;;5.07;2.10;;;;;;;22.45;24.92;96685.31;10292206;28;20045;-62
2022/04/08 12:37:35;;;;;;;5.65;2.10;;;;;;;22.42;26.58;96637.94;10292817;28;20084;-62
2022/04/08 12:42:35;;;;;;;5.65;3.50;;;;;;;22.83;24.83;96658.13;10292457;28;20057;-62
2022/04/08 12:47:35;;;;;;;6.95;3.53;;;;;;;22.99;24.81;96656.13;10292896;28;20095;-62
2022/04/08 12:52:34;;;;;;;34.28;17.02;;;;;;;23.04;24.87;96655.81;10292297;28;20077;-62
2022/04/08 12:57:34;;;;;;;20.65;12.02;;;;;;;22.98;23.62;96650.00;10288203;28;20519;-62
2022/04/08 13:02:33;;;;;;;30.92;21.08;;;;;;;22.21;23.08;96535.34;10254424;28;20578;-62
2022/04/08 13:07:32;;;;;;;36.50;23.15;;;;;;;22.75;22.83;96601.31;10277539;28;20061;-62
2022/04/08 13:12:32;;;;;;;18.65;11.65;;;;;;;23.07;22.08;96645.88;10287193;28;20520;-62
2022/04/08 13:17:31;;;;;;;14.18;7.80;;;;;;;22.84;22.32;96643.97;10291240;28;20514;-62
2022/04/08 13:22:30;;;;;;;39.30;25.35;;;;;;;23.22;22.75;96655.41;10291129;28;20108;-62
2022/04/08 13:27:29;;;;;;;71.53;48.28;;;;;;;23.26;24.09;96628.72;10289160;28;20561;-62
2022/04/08 13:32:34;;;;;;;13.43;7.30;;;;;;;23.58;24.28;96663.53;10291618;28;20030;-63
2022/04/08 13:37:35;;;;;;;17.65;11.00;;;;;;;23.66;23.71;96655.91;10291129;28;20346;-63
2022/04/08 13:42:34;;;;;;;22.88;15.73;;;;;;;23.51;23.38;96664.94;10289005;28;20105;-63
2022/04/08 13:47:34;;;;;;;12.88;8.35;;;;;;;23.30;23.35;96625.72;10290981;28;20064;-62
2022/04/08 13:52:33;;;;;;;20.90;16.23;;;;;;;23.18;22.91;96642.47;10290144;28;20124;-62
2022/04/08 13:57:32;;;;;;;12.75;9.30;;;;;;;23.39;23.25;96656.00;10289880;28;20093;-63
2022/04/08 14:02:32;;;;;;;33.90;25.58;;;;;;;22.79;22.88;96557.84;10290266;28;20407;-62
2022/04/08 14:07:31;;;;;;;17.98;10.27;;;;;;;23.23;23.75;96604.16;10288101;28;20054;-62
2022/04/08 14:12:30;;;;;;;45.33;28.70;;;;;;;23.58;23.25;96675.00;10304092;28;20062;-62
2022/04/08 14:17:29;;;;;;;16.27;8.40;;;;;;;23.03;22.54;96604.72;10296481;28;20069;-61
2022/04/08 14:22:28;;;;;;;22.55;14.55;;;;;;;23.32;22.42;96660.06;10285730;28;20064;-61
2022/04/08 14:27:27;;;;;;;19.30;12.10;;;;;;;23.20;23.42;96656.47;10285678;28;20507;-61
2022/04/08 14:32:26;;;;;;;3.30;1.77;;;;;;;22.72;23.32;96590.94;10288794;28;20442;-61
2022/04/08 14:37:26;;;;;;;10.88;6.97;;;;;;;23.20;24.34;96654.66;10288822;28;20387;-61
2022/04/08 14:42:25;;;;;;;8.15;2.95;;;;;;;23.17;23.07;96652.22;10287035;28;20069;-62
2022/04/08 14:47:24;;;;;;;8.90;3.30;;;;;;;22.94;23.46;96637.09;10287416;28;20065;-63
2022/04/08 14:52:23;;;;;;;5.68;1.70;;;;;;;22.50;23.16;96586.25;10289173;28;20100;-62
2022/04/08 14:57:22;;;;;;;10.20;6.18;;;;;;;23.09;23.52;96670.44;10288496;28;20045;-62
2022/04/08 15:02:21;;;;;;;3.58;1.40;;;;;;;22.58;23.40;96673.84;10288573;28;20033;-62
2022/04/08 15:07:20;;;;;;;4.32;1.67;;;;;;;22.44;23.50;96678.34;10294143;28;20064;-61
2022/04/08 15:12:21;;;;;;;6.97;4.75;;;;;;;22.54;23.62;96682.91;10296059;28;20063;-62
2022/04/08 15:17:20;;;;;;;31.40;17.00;;;;;;;22.64;24.50;96682.31;10291120;28;20486;-63
2022/04/08 15:22:19;;;;;;;12.05;6.30;;;;;;;22.66;24.14;96677.75;10295583;28;20457;-63
2022/04/08 15:27:18;;;;;;;11.52;4.32;;;;;;;22.65;24.23;96676.94;10294968;28;20013;-63
2022/04/08 15:32:17;;;;;;;50.05;28.52;;;;;;;22.29;24.97;96622.03;10294879;28;20388;-63
2022/04/08 15:37:16;;;;;;;29.95;15.30;;;;;;;22.50;24.50;96673.47;10292544;28;20073;-63
2022/04/08 15:42:15;;;;;;;9.77;4.43;;;;;;;22.39;24.35;96671.56;10293708;28;20036;-63
2022/04/08 15:47:14;;;;;;;70.45;49.05;;;;;;;22.34;24.32;96686.00;10293480;28;20109;-63
2022/04/08 15:52:13;;;;;;;86.80;27.75;;;;;;;22.25;24.93;96690.13;10294083;28;20054;-63
2022/04/08 15:57:13;;;;;;;38.28;26.10;;;;;;;22.10;25.02;96685.81;10294507;28;20440;-63
2022/04/08 16:02:12;;;;;;;19.80;12.07;;;;;;;21.86;25.66;96664.44;10293141;28;20068;-63
2022/04/08 16:07:12;;;;;;;13.05;8.13;;;;;;;21.49;25.80;96629.81;10293322;28;20026;-64
2022/04/08 16:12:11;;;;;;;26.30;18.98;;;;;;;21.64;26.25;96683.41;10293820;28;20053;-63
2022/04/08 16:17:10;;;;;;;21.40;14.45;;;;;;;21.37;26.41;96665.72;10291497;28;20585;-63
2022/04/08 16:22:09;;;;;;;13.35;9.15;;;;;;;21.26;26.94;96660.25;10292656;28;20026;-63
2022/04/08 16:27:08;;;;;;;11.55;7.97;;;;;;;20.97;27.05;96649.69;10291223;28;20097;-63
2022/04/08 16:32:07;;;;;;;26.17;14.25;;;;;;;20.67;27.32;96645.28;10292087;28;20030;-61
2022/04/08 16:37:06;;;;;;;58.75;29.38;;;;;;;20.15;27.80;96606.16;10292222;28;20065;-61
2022/04/08 16:42:06;;;;;;;99.50;49.67;;;;;;;20.17;28.87;96645.59;10292480;28;20030;-62
2022/04/08 16:47:06;;;;;;;26.45;13.68;;;;;;;19.94;29.26;96649.53;10292074;28;20041;-61
2022/04/08 16:52:07;;;;;;;9.75;5.13;;;;;;;19.71;29.87;96662.16;10291644;28;20133;-61
2022/04/08 16:57:06;;;;;;;33.50;17.65;;;;;;;19.42;30.80;96671.63;10282354;28;20108;-61
2022/04/08 17:02:07;;;;;;;27.50;16.20;;;;;;;19.08;31.67;96664.69;10291671;28;20069;-61
2022/04/08 17:07:07;;;;;;;10.85;6.00;;;;;;;18.56;32.46;96620.88;10291172;28;20060;-61
2022/04/08 17:12:06;;;;;;;14.50;8.93;;;;;;;18.37;32.99;96636.72;10291495;28;20065;-61
2022/04/08 17:17:05;;;;;;;11.63;7.65;;;;;;;18.26;33.78;96660.88;10290697;28;20062;-61
2022/04/08 17:22:07;;;;;;;12.93;6.85;;;;;;;17.99;34.33;96663.09;10289551;28;20121;-62
2022/04/08 17:27:06;;;;;;;12.45;7.15;;;;;;;17.72;34.86;96662.59;10283153;28;20452;-62
2022/04/08 17:32:05;;;;;;;;;;;;;;;17.50;35.27;96670.63;10290005;28;20552;-61
2022/04/08 17:37:04;;;;;;;14.37;8.27;;;;;;;17.29;36.18;96672.47;10290140;28;20356;-61
2022/04/08 17:42:04;;;;;;;18.83;8.68;;;;;;;17.08;37.09;96674.28;10289074;28;20064;-61
2022/04/08 17:47:04;;;;;;;22.40;10.48;;;;;;;16.76;37.67;96666.00;10290318;28;20049;-61
2022/04/08 17:52:03;;;;;;;20.20;11.13;;;;;;;15.53;38.74;96508.84;10288929;28;20081;-61
2022/04/08 17:57:02;;;;;;;21.13;11.75;;;;;;;16.05;39.03;96628.84;10289463;28;20053;-61
2022/04/08 18:02:03;;;;;;;30.40;22.70;;;;;;;16.22;39.62;96701.44;10289749;28;20060;-63
2022/04/08 18:07:05;;;;;;;26.90;14.85;;;;;;;15.66;40.67;96648.63;10288788;28;20057;-61
2022/04/08 18:12:05;;;;;;;10.20;5.80;;;;;;;15.86;41.12;96718.53;10289166;28;20121;-61
2022/04/08 18:17:07;;;;;;;12.15;7.38;;;;;;;15.72;41.87;96717.34;10289910;28;20443;-61
2022/04/08 18:22:07;;;;;;;11.13;6.72;;;;;;;15.53;41.64;96702.34;10286796;28;20068;-61
2022/04/08 18:27:06;;;;;;;12.73;6.90;;;;;;;15.41;42.69;96715.84;10288273;28;20050;-61
2022/04/08 18:32:06;;;;;;;12.00;6.82;;;;;;;15.28;42.36;96709.38;10288216;28;20062;-61
2022/04/08 18:37:05;;;;;;;12.98;5.97;;;;;;;15.05;42.85;96695.38;10284703;28;20064;-62
2022/04/08 18:42:08;;;;;;;19.15;11.57;;;;;;;14.76;43.18;96679.00;10291859;28;20036;-62
2022/04/08 18:47:11;;;;;;;20.38;13.20;;;;;;;14.86;43.23;96692.56;10297087;28;20053;-62
2022/04/08 18:52:10;;;;;;;24.98;17.30;;;;;;;14.79;44.10;96697.16;10295893;28;20101;-62
2022/04/08 18:57:09;;;;;;;;;;;;;;;14.64;44.71;96695.06;10295967;28;20068;-62
2022/04/08 19:02:08;;;;;;;26.17;16.98;;;;;;;14.58;44.29;96690.03;10296137;28;19955;-61
2022/04/08 19:07:07;;;;;;;;;;;;;;;14.53;44.75;96684.13;10296408;28;20396;-62
2022/04/08 19:12:06;;;;;;;18.52;13.13;;;;;;;14.41;45.00;96673.19;10295716;28;20566;-61
2022/04/08 19:17:05;;;;;;;27.30;19.00;;;;;;;14.36;45.24;96680.31;10295245;28;20064;-61
2022/04/08 19:22:05;;;;;;;23.25;15.85;;;;;;;14.33;45.51;96677.78;10295008;28;20037;-61
2022/04/08 19:27:05;;;;;;;8.90;5.07;;;;;;;14.25;42.56;96652.88;10287997;28;20068;-62
2022/04/08 19:32:05;;;;;;;6.95;2.92;;;;;;;14.80;40.42;96670.16;10294602;28;20066;-61
2022/04/08 19:37:04;;;;;;;12.07;6.45;;;;;;;15.24;41.27;96670.28;10294365;28;20057;-62
2022/04/08 19:42:05;;;;;;;16.23;8.48;;;;;;;15.18;42.82;96675.75;10294305;28;20065;-61
2022/04/08 19:47:09;;;;;;;17.70;10.25;;;;;;;14.77;44.36;96667.63;10294858;28;20057;-62
2022/04/08 19:52:08;;;;;;;180.82;101.38;;;;;;;14.30;45.46;96666.63;10293150;28;20081;-61
2022/04/08 19:57:07;;;;;;;110.03;56.97;;;;;;;13.48;45.40;96572.72;10287157;28;20069;-62
2022/04/08 20:02:06;;;;;;;;;;;;;;;13.87;46.18;96665.41;10294683;28;20088;-62
2022/04/08 20:07:07;;;;;;;32.33;24.88;;;;;;;13.35;46.69;96613.06;10293795;28;20308;-62
2022/04/08 20:12:06;;;;;;;19.20;13.82;;;;;;;13.60;46.90;96675.78;10293156;28;20072;-61
2022/04/08 20:17:05;;;;;;;16.52;8.55;;;;;;;13.50;47.00;96666.50;10293536;28;20069;-61
2022/04/08 20:22:04;;;;;;;12.90;6.90;;;;;;;13.47;47.09;96670.06;10293128;28;20495;-62
2022/04/08 20:27:04;;;;;;;18.13;8.65;;;;;;;13.12;46.98;96614.63;10286055;28;20836;-62
2022/04/08 20:32:04;;;;;;;27.60;17.17;;;;;;;12.80;49.00;96596.47;10292720;28;20073;-61
2022/04/08 20:37:03;;;;;;;21.77;15.35;;;;;;;13.19;49.18;96674.34;10292251;28;20065;-62
2022/04/08 20:42:06;;;;;;;;;;;;;;;13.10;49.59;96678.09;10292539;28;20064;-61
2022/04/08 20:47:05;;;;;;;34.55;22.48;;;;;;;13.03;49.67;96686.97;10292000;28;20362;-62
2022/04/08 20:52:04;;;;;;;34.85;20.77;;;;;;;12.63;49.90;96623.84;10291529;28;20081;-61
2022/04/08 20:57:04;;;;;;;29.52;19.92;;;;;;;12.03;50.21;96539.56;10290978;28;20511;-62
2022/04/08 21:02:03;;;;;;;30.80;20.90;;;;;;;12.72;50.71;96698.22;10319799;28;20074;-61
2022/04/08 21:07:03;;;;;;;26.13;15.32;;;;;;;12.61;50.93;96688.09;10291615;28;20084;-62
2022/04/08 21:12:02;;;;;;;;;;;;;;;12.72;50.54;96701.69;10291589;28;20058;-61
2022/04/08 21:17:02;;;;;;;27.05;15.75;;;;;;;12.42;50.61;96655.63;10291118;28;19915;-61
2022/04/08 21:22:01;;;;;;;25.10;14.90;;;;;;;12.73;50.82;96695.56;10290842;28;20422;-61
2022/04/08 21:27:00;;;;;;;20.67;13.10;;;;;;;12.76;50.34;96702.44;10290985;28;20076;-61
2022/04/08 21:31:59;;;;;;;22.80;12.75;;;;;;;12.59;50.28;96656.03;10283923;28;20042;-61
2022/04/08 21:36:58;;;;;;;8.98;4.85;;;;;;;12.95;48.77;96700.19;10289551;28;20139;-62
2022/04/08 21:41:58;;;;;;;6.60;3.60;;;;;;;13.13;45.53;96664.97;10290429;28;20678;-61
2022/04/08 21:46:57;;;;;;;8.90;3.38;;;;;;;13.64;44.33;96643.50;10289495;28;20491;-62
2022/04/08 21:51:57;;;;;;;6.80;2.35;;;;;;;14.20;43.53;96676.50;10289400;28;20500;-62
2022/04/08 21:56:56;;;;;;;5.00;2.38;;;;;;;14.25;41.79;96632.84;10290128;28;20084;-62
2022/04/08 22:01:56;;;;;;;2.83;2.08;;;;;;;14.95;41.14;96694.03;10283524;28;20444;-62
2022/04/08 22:06:55;;;;;;;4.65;2.08;;;;;;;14.79;41.34;96644.91;10289477;28;20450;-62
2022/04/08 22:11:53;;;;;;;11.90;2.55;;;;;;;15.04;41.04;96662.34;10289793;28;20488;-61
2022/04/08 22:16:52;;;;;;;5.57;2.35;;;;;;;15.37;40.47;96691.59;10287126;28;20034;-61
2022/04/08 22:21:51;;;;;;;7.13;2.70;;;;;;;15.51;40.00;96691.09;10286133;28;20563;-61
2022/04/08 22:26:50;;;;;;;4.20;2.50;;;;;;;15.63;39.40;96692.38;10286005;28;20128;-61
2022/04/08 22:31:49;;;;;;;8.73;2.47;;;;;;;15.62;39.00;96678.47;10279936;28;20030;-62
2022/04/08 22:36:48;;;;;;;7.43;2.60;;;;;;;15.35;38.37;96585.41;10287221;28;20041;-62
2022/04/08 22:41:48;;;;;;;6.75;2.47;;;;;;;16.12;38.71;96698.34;10288593;28;20038;-62
2022/04/08 22:46:47;;;;;;;3.55;2.50;;;;;;;16.14;38.85;96678.19;10286965;28;20072;-61
2022/04/08 22:51:46;;;;;;;;;;;;;;;16.19;38.67;96689.34;10289552;28;20046;-62
2022/04/08 22:56:46;;;;;;;8.48;2.90;;;;;;;15.89;38.46;96646.94;10288419;28;20299;-62
2022/04/08 23:01:45;;;;;;;4.82;2.55;;;;;;;15.77;38.44;96629.94;10282828;28;20070;-62
2022/04/08 23:06:44;;;;;;;;;;;;;;;16.03;38.72;96673.38;10289314;28;20034;-62
2022/04/08 23:11:43;;;;;;;5.47;3.13;;;;;;;15.83;38.97;96663.72;10288326;28;19945;-61